Time;durP1;ratioP1;P1;durP2;ratioP2;P2;SDS_P1;SDS_P2;PMS_P1;PMS_P2;Temp;Humidity;BMP_temperature;BMP_pressure;BME280_temperature;BME280_humidity;BME280_pressure;Samples;Min_cycle;Max_cycle;Signal;HPM_P1;HPM_P2
2021/09/09 00:00:22;;;;;;;26.20;23.63;;;14.70;94.40;;;;;;6246945;23;20431;-85
2021/09/09 00:02:49;;;;;;;26.70;24.20;;;14.60;94.00;;;;;;6246980;23;20434;-87
2021/09/09 00:05:16;;;;;;;27.90;24.77;;;14.60;94.40;;;;;;6247395;23;20418;-87
2021/09/09 00:07:43;;;;;;;29.00;26.30;;;14.50;94.20;;;;;;6256075;23;20711;-87
2021/09/09 00:10:10;;;;;;;30.00;27.30;;;14.40;95.00;;;;;;6246866;23;20481;-86
2021/09/09 00:12:38;;;;;;;32.57;29.67;;;14.30;94.90;;;;;;6247244;23;20396;-87
2021/09/09 00:15:06;;;;;;;35.97;32.97;;;14.20;95.40;;;;;;6257026;23;20442;-87
2021/09/09 00:17:33;;;;;;;34.70;31.60;;;14.20;96.10;;;;;;6246807;23;20459;-87
2021/09/09 00:20:00;;;;;;;38.63;35.13;;;14.20;97.60;;;;;;6247311;23;20494;-88
2021/09/09 00:22:27;;;;;;;38.13;35.03;;;14.20;98.30;;;;;;6256581;22;20430;-86
2021/09/09 00:24:54;;;;;;;43.53;40.07;;;14.20;99.30;;;;;;6256499;23;20408;-84
2021/09/09 00:27:21;;;;;;;44.00;40.53;;;14.30;99.40;;;;;;6256969;23;20490;-85
2021/09/09 00:29:49;;;;;;;40.00;36.70;;;14.20;99.70;;;;;;6257426;23;20407;-87
2021/09/09 00:32:16;;;;;;;41.50;38.20;;;14.20;99.90;;;;;;6256921;23;20436;-88
2021/09/09 00:34:43;;;;;;;47.47;43.77;;;14.20;99.90;;;;;;6247176;23;20432;-88
2021/09/09 00:37:10;;;;;;;46.57;42.80;;;14.30;99.90;;;;;;6257113;23;20415;-87
2021/09/09 00:39:37;;;;;;;43.67;40.13;;;14.30;99.90;;;;;;6245886;23;20405;-88
2021/09/09 00:42:04;;;;;;;42.43;38.70;;;14.50;99.90;;;;;;6256882;23;20525;-88
2021/09/09 00:44:31;;;;;;;36.70;33.70;;;14.40;99.90;;;;;;6247127;23;20707;-86
2021/09/09 00:47:02;;;;;;;36.90;33.80;;;14.30;99.90;;;;;;6247059;23;20427;-87
2021/09/09 00:49:29;;;;;;;37.60;34.20;;;14.20;99.90;;;;;;6246660;23;20475;-87
2021/09/09 00:51:56;;;;;;;33.53;30.53;;;14.10;99.90;;;;;;6246754;23;20473;-87
2021/09/09 00:54:23;;;;;;;39.33;35.80;;;14.10;99.90;;;;;;6245475;23;20404;-87
2021/09/09 00:56:51;;;;;;;37.97;35.00;;;14.10;99.90;;;;;;6256653;23;20415;-87
2021/09/09 00:59:18;;;;;;;45.33;41.93;;;14.10;99.90;;;;;;6246973;23;20404;-87
2021/09/09 01:01:48;;;;;;;43.00;39.70;;;14.20;99.90;;;;;;6246685;23;20511;-85
2021/09/09 01:04:19;;;;;;;41.23;37.80;;;14.10;99.90;;;;;;6256977;23;20399;-84
2021/09/09 01:06:47;;;;;;;39.50;36.30;;;14.20;99.90;;;;;;6246825;23;20400;-85
2021/09/09 01:09:14;;;;;;;37.97;34.83;;;14.20;99.90;;;;;;6255615;23;20530;-84
2021/09/09 01:11:41;;;;;;;36.90;34.10;;;14.20;99.90;;;;;;6256450;23;20438;-85
2021/09/09 01:14:10;;;;;;;41.23;37.90;;;14.20;99.90;;;;;;6246486;23;20410;-86
2021/09/09 01:16:38;;;;;;;40.80;37.43;;;14.30;99.90;;;;;;6246867;23;20407;-86
2021/09/09 01:19:06;;;;;;;37.70;34.80;;;14.20;99.90;;;;;;6256362;23;20403;-86
2021/09/09 01:21:35;;;;;;;35.53;32.60;;;14.20;99.90;;;;;;6256204;22;20827;-85
2021/09/09 01:24:03;;;;;;;36.00;32.87;;;14.20;99.90;;;;;;6245468;23;20482;-86
2021/09/09 01:26:48;;;;;;;37.20;34.07;;;14.20;99.90;;;;;;6246674;23;20418;-86
2021/09/09 01:29:15;;;;;;;36.63;33.43;;;14.20;99.90;;;;;;6256862;23;20465;-86
2021/09/09 01:31:42;;;;;;;36.90;34.00;;;14.20;99.90;;;;;;6256348;23;20415;-86
2021/09/09 01:34:09;;;;;;;39.83;36.30;;;14.20;99.90;;;;;;6256881;23;20403;-86
2021/09/09 01:36:36;;;;;;;37.60;34.50;;;14.20;99.90;;;;;;6246119;23;20892;-86
2021/09/09 01:39:03;;;;;;;36.53;33.47;;;14.20;99.90;;;;;;6245272;23;20438;-86
2021/09/09 01:41:31;;;;;;;38.63;35.60;;;14.10;99.90;;;;;;6246556;23;20400;-85
2021/09/09 01:43:59;;;;;;;40.13;37.13;;;14.20;99.90;;;;;;6246047;23;20467;-86
2021/09/09 01:46:25;;;;;;;36.67;33.20;;;14.20;99.90;;;;;;6256211;23;20407;-86
2021/09/09 01:48:52;;;;;;;37.63;34.03;;;14.20;99.90;;;;;;6256297;23;20431;-86
2021/09/09 01:51:20;;;;;;;41.13;37.73;;;14.20;99.90;;;;;;6256226;22;20510;-86
2021/09/09 01:53:46;;;;;;;36.07;32.70;;;14.20;99.90;;;;;;6245228;23;20407;-86
2021/09/09 01:56:13;;;;;;;39.70;36.80;;;14.20;99.90;;;;;;6246346;23;20439;-85
2021/09/09 01:58:41;;;;;;;38.00;35.20;;;14.40;99.90;;;;;;6246329;23;20442;-86
2021/09/09 02:01:09;;;;;;;42.73;39.30;;;14.20;99.90;;;;;;6256538;23;20407;-86
2021/09/09 02:03:36;;;;;;;40.23;37.03;;;14.20;99.90;;;;;;6245877;23;20470;-85
2021/09/09 02:06:03;;;;;;;45.03;37.73;;;14.20;99.90;;;;;;6256200;23;20735;-86
2021/09/09 02:08:30;;;;;;;43.00;39.90;;;14.30;99.90;;;;;;6245073;23;20403;-84
2021/09/09 02:10:57;;;;;;;43.57;40.27;;;14.20;99.90;;;;;;6245922;23;20459;-86
2021/09/09 02:13:23;;;;;;;36.07;33.37;;;14.30;99.90;;;;;;6246061;23;20419;-86
2021/09/09 02:15:54;;;;;;;42.10;38.17;;;14.30;99.90;;;;;;6256515;23;20403;-86
2021/09/09 02:18:30;;;;;;;43.00;39.60;;;14.10;99.90;;;;;;6256044;23;20882;-84
2021/09/09 02:20:57;;;;;;;44.93;41.53;;;14.10;99.90;;;;;;6246245;22;20825;-86
2021/09/09 02:23:28;;;;;;;46.33;43.00;;;14.20;99.90;;;;;;6254923;23;20505;-86
2021/09/09 02:25:55;;;;;;;43.10;39.70;;;14.20;99.90;;;;;;6256137;23;20407;-86
2021/09/09 02:28:22;;;;;;;39.90;36.80;;;14.10;99.90;;;;;;6255969;23;20737;-85
2021/09/09 02:30:49;;;;;;;43.67;40.40;;;14.10;99.90;;;;;;6255918;23;20417;-86
2021/09/09 02:33:17;;;;;;;46.53;42.93;;;14.10;99.90;;;;;;6255911;23;20518;-86
2021/09/09 02:35:44;;;;;;;41.17;38.17;;;14.10;99.90;;;;;;6255760;23;20445;-85
2021/09/09 02:38:11;;;;;;;44.03;40.90;;;13.90;99.90;;;;;;6244415;23;20934;-85
2021/09/09 02:40:38;;;;;;;47.17;43.60;;;14.00;99.90;;;;;;6255765;23;20407;-86
2021/09/09 02:43:05;;;;;;;44.40;40.97;;;13.90;99.90;;;;;;6245612;22;20431;-86
2021/09/09 02:45:32;;;;;;;49.33;46.00;;;13.90;99.90;;;;;;6245983;23;20407;-86
2021/09/09 02:48:02;;;;;;;50.07;46.73;;;13.80;99.90;;;;;;6255760;23;20430;-86
2021/09/09 02:50:31;;;;;;;51.10;47.27;;;13.90;99.90;;;;;;6245939;23;20399;-86
2021/09/09 02:53:00;;;;;;;55.47;51.57;;;13.80;99.90;;;;;;6244233;23;20404;-86
2021/09/09 02:55:27;;;;;;;56.07;52.23;;;13.80;99.90;;;;;;6245882;23;20407;-86
2021/09/09 02:57:54;;;;;;;55.20;49.27;;;13.70;99.90;;;;;;6245825;23;20478;-85
2021/09/09 03:00:21;;;;;;;117.50;56.77;;;13.80;99.90;;;;;;6245562;22;20442;-85
2021/09/09 03:02:48;;;;;;;56.43;48.80;;;13.70;99.90;;;;;;6245395;23;20946;-82
2021/09/09 03:05:15;;;;;;;53.70;49.17;;;13.70;99.90;;;;;;6245798;23;20481;-81
2021/09/09 03:07:44;;;;;;;56.17;52.57;;;13.60;99.90;;;;;;6244255;23;20490;-83
2021/09/09 03:10:11;;;;;;;60.07;55.83;;;13.60;99.90;;;;;;6245451;23;20537;-82
2021/09/09 03:12:38;;;;;;;62.90;58.77;;;13.50;99.90;;;;;;6245843;23;20486;-82
2021/09/09 03:15:06;;;;;;;63.63;59.70;;;13.60;99.90;;;;;;6245893;23;20424;-82
2021/09/09 03:17:34;;;;;;;67.00;63.00;;;13.60;99.90;;;;;;6245437;23;20483;-82
2021/09/09 03:20:00;;;;;;;68.97;64.57;;;13.60;99.90;;;;;;6255902;22;20475;-82
2021/09/09 03:22:27;;;;;;;74.93;69.93;;;13.60;99.90;;;;;;6255507;23;20748;-90
2021/09/09 03:24:55;;;;;;;71.70;66.90;;;13.60;99.90;;;;;;6254638;23;20431;-80
2021/09/09 03:27:23;;;;;;;74.97;70.07;;;13.60;99.90;;;;;;6256243;22;20439;-79
2021/09/09 03:29:50;;;;;;;74.23;69.67;;;13.50;99.90;;;;;;6245802;23;20403;-79
2021/09/09 03:32:16;;;;;;;72.97;68.80;;;13.50;99.90;;;;;;6245712;23;20406;-79
2021/09/09 03:34:43;;;;;;;75.43;70.90;;;13.30;99.90;;;;;;6245630;23;20406;-79
2021/09/09 03:37:10;;;;;;;82.77;77.50;;;13.20;99.90;;;;;;6245460;23;20915;-79
2021/09/09 03:39:37;;;;;;;89.67;84.57;;;13.20;99.90;;;;;;6244333;23;20490;-79
2021/09/09 03:42:05;;;;;;;96.50;90.97;;;13.30;99.90;;;;;;6245654;23;20403;-79
2021/09/09 03:44:32;;;;;;;100.47;95.07;;;13.30;99.90;;;;;;6245648;23;20431;-79
2021/09/09 03:46:59;;;;;;;95.60;90.27;;;13.40;99.90;;;;;;6245380;23;20399;-79
2021/09/09 03:49:26;;;;;;;97.70;92.50;;;13.40;99.90;;;;;;6245577;23;20402;-79
2021/09/09 03:51:52;;;;;;;96.93;91.47;;;13.50;99.90;;;;;;6245742;23;20403;-79
2021/09/09 03:54:19;;;;;;;97.37;92.07;;;13.40;99.90;;;;;;6244182;23;20486;-79
2021/09/09 03:56:46;;;;;;;94.43;89.50;;;13.40;99.90;;;;;;6255430;23;20726;-79
2021/09/09 03:59:14;;;;;;;100.43;94.73;;;13.40;99.90;;;;;;6245280;23;20395;-79
2021/09/09 04:01:42;;;;;;;103.73;96.97;;;13.50;99.90;;;;;;6245556;23;20479;-83
2021/09/09 04:04:09;;;;;;;98.23;92.97;;;13.40;99.90;;;;;;6254885;23;20443;-79
2021/09/09 04:06:36;;;;;;;96.30;90.90;;;13.40;99.90;;;;;;6245902;23;20403;-79
2021/09/09 04:09:14;;;;;;;89.83;84.40;;;13.50;99.90;;;;;;6245482;23;20402;-83
2021/09/09 04:11:43;;;;;;;79.50;74.93;;;13.40;99.90;;;;;;6246957;23;21044;-83
2021/09/09 04:14:13;;;;;;;84.40;79.00;;;13.40;99.90;;;;;;6257719;23;20399;-83
2021/09/09 04:16:43;;;;;;;82.43;77.53;;;13.50;99.90;;;;;;6247270;23;20399;-83
2021/09/09 04:19:27;;;;;;;80.30;75.67;;;13.40;99.90;;;;;;6204068;23;20509;-83
2021/09/09 04:22:06;;;;;;;81.67;76.87;;;13.40;99.90;;;;;;6247299;23;20396;-84
2021/09/09 04:25:06;;;;;;;;;;;;;;;;;;;;;
2021/09/09 04:27:37;;;;;;;72.70;68.33;;;13.50;99.90;;;;;;6237454;22;20441;-84
2021/09/09 04:30:04;;;;;;;67.73;63.40;;;13.60;99.90;;;;;;6247281;22;20453;-84
2021/09/09 04:32:32;;;;;;;72.80;68.57;;;13.60;99.90;;;;;;6257381;22;20413;-84
2021/09/09 04:34:59;;;;;;;73.27;68.97;;;13.60;99.90;;;;;;6246814;23;20898;-84
2021/09/09 04:37:26;;;;;;;76.20;71.20;;;13.50;99.90;;;;;;6256874;23;20442;-83
2021/09/09 04:39:53;;;;;;;74.03;69.83;;;13.60;99.90;;;;;;6245814;23;20400;-85
2021/09/09 04:42:20;;;;;;;65.27;61.33;;;13.70;99.90;;;;;;6247164;23;20782;-85
2021/09/09 04:44:47;;;;;;;68.13;63.80;;;13.70;99.90;;;;;;6246667;23;20985;-83
2021/09/09 04:47:13;;;;;;;65.40;61.20;;;13.70;99.90;;;;;;6257210;23;20411;-93
2021/09/09 04:49:42;;;;;;;63.60;59.50;;;13.80;99.90;;;;;;6247372;23;20400;-93
2021/09/09 04:52:08;;;;;;;66.20;62.30;;;13.70;99.90;;;;;;6257495;22;20918;-89
2021/09/09 04:54:35;;;;;;;63.70;59.50;;;13.80;99.90;;;;;;6256032;23;21025;-90
2021/09/09 04:57:03;;;;;;;63.83;59.73;;;13.70;99.90;;;;;;6246780;23;20482;-89
2021/09/09 04:59:29;;;;;;;62.90;58.10;;;13.70;99.90;;;;;;6246957;23;20396;-86
2021/09/09 05:01:56;;;;;;;64.10;59.70;;;13.70;99.90;;;;;;6256663;23;20925;-82
2021/09/09 05:04:23;;;;;;;68.77;64.53;;;13.70;99.90;;;;;;6246755;23;20437;-87
2021/09/09 05:06:51;;;;;;;70.73;66.10;;;13.70;99.90;;;;;;6246525;23;20410;-84
2021/09/09 05:09:18;;;;;;;73.60;68.60;;;13.80;99.90;;;;;;6245000;23;20407;-86
2021/09/09 05:11:45;;;;;;;74.37;69.67;;;13.70;99.90;;;;;;6246394;23;20784;-85
2021/09/09 05:14:11;;;;;;;71.30;66.07;;;13.70;99.90;;;;;;6246497;23;20901;-87
2021/09/09 05:16:38;;;;;;;70.13;65.90;;;13.60;99.90;;;;;;6246829;23;20734;-89
2021/09/09 05:19:05;;;;;;;81.77;76.53;;;13.60;99.90;;;;;;6246052;22;20972;-84
2021/09/09 05:21:32;;;;;;;75.50;70.90;;;13.70;99.90;;;;;;6246597;23;20410;-84
2021/09/09 05:24:00;;;;;;;82.80;77.70;;;13.60;99.90;;;;;;6244767;23;20942;-84
2021/09/09 05:26:26;;;;;;;74.67;69.97;;;13.70;99.90;;;;;;6246316;23;20914;-89
2021/09/09 05:28:53;;;;;;;73.77;69.37;;;13.80;99.90;;;;;;6246678;23;20728;-87
2021/09/09 05:31:20;;;;;;;71.07;66.60;;;13.90;99.90;;;;;;6246612;23;20406;-90
2021/09/09 05:33:47;;;;;;;62.72;58.53;;;13.90;99.90;;;;;;6244862;22;20454;-88
2021/09/09 05:36:16;;;;;;;67.37;62.80;;;13.90;99.90;;;;;;6246671;23;20236;-86
2021/09/09 05:38:42;;;;;;;69.30;65.00;;;14.00;99.90;;;;;;6245408;22;20759;-87
2021/09/09 05:41:11;;;;;;;68.97;64.57;;;14.10;99.90;;;;;;6246621;23;20475;-87
2021/09/09 05:43:37;;;;;;;67.67;63.77;;;14.20;99.90;;;;;;6246524;23;20470;-87
2021/09/09 05:46:04;;;;;;;68.00;63.80;;;14.20;99.90;;;;;;6246171;23;20940;-87
2021/09/09 05:48:31;;;;;;;63.07;58.80;;;14.40;99.90;;;;;;6246597;23;20399;-85
2021/09/09 05:50:58;;;;;;;56.57;52.90;;;14.50;99.90;;;;;;6246333;23;20406;-87
2021/09/09 05:53:25;;;;;;;61.37;57.47;;;14.50;99.90;;;;;;6254964;23;20449;-87
2021/09/09 05:55:52;;;;;;;55.50;51.93;;;14.60;99.90;;;;;;6246079;23;20905;-88
2021/09/09 05:58:20;;;;;;;55.60;51.80;;;14.70;99.90;;;;;;6246599;23;20482;-86
2021/09/09 06:00:47;;;;;;;50.73;47.10;;;14.80;99.90;;;;;;6246330;22;20391;-87
2021/09/09 06:03:16;;;;;;;53.07;48.47;;;15.00;99.90;;;;;;6256513;23;20407;-87
2021/09/09 06:05:43;;;;;;;52.80;49.10;;;15.00;99.90;;;;;;6246339;23;20400;-86
2021/09/09 06:08:42;;;;;;;49.03;45.50;;;15.20;99.90;;;;;;6255028;23;20491;-88
2021/09/09 06:11:10;;;;;;;39.40;36.40;;;15.20;99.90;;;;;;6223501;22;20448;-85
2021/09/09 06:13:38;;;;;;;36.40;33.40;;;15.40;99.90;;;;;;6255395;23;20419;-82
2021/09/09 06:16:05;;;;;;;32.07;28.93;;;15.50;99.90;;;;;;6246102;23;20483;-84
2021/09/09 06:18:32;;;;;;;28.67;26.00;;;15.60;99.90;;;;;;6245759;22;21066;-82
2021/09/09 06:20:59;;;;;;;27.17;24.63;;;15.70;98.00;;;;;;6245852;23;20400;-85
2021/09/09 06:23:26;;;;;;;24.50;22.30;;;15.80;96.70;;;;;;6244821;23;20800;-85
2021/09/09 06:25:53;;;;;;;24.80;20.57;;;16.00;95.50;;;;;;6245865;23;20409;-85
2021/09/09 06:28:20;;;;;;;23.53;18.50;;;16.20;94.40;;;;;;6246300;23;20454;-82
2021/09/09 06:30:48;;;;;;;20.60;18.17;;;16.30;93.60;;;;;;6246405;23;20402;-84
2021/09/09 06:33:15;;;;;;;23.70;18.17;;;16.40;91.30;;;;;;6256731;23;20447;-85
2021/09/09 06:35:43;;;;;;;24.13;17.27;;;16.50;90.40;;;;;;6246341;23;20405;-85
2021/09/09 06:38:16;;;;;;;22.87;15.70;;;16.60;89.90;;;;;;6255119;23;20416;-82
2021/09/09 06:40:43;;;;;;;23.07;15.40;;;16.70;88.10;;;;;;6245979;23;20448;-85
2021/09/09 06:43:10;;;;;;;19.03;15.40;;;16.70;86.50;;;;;;6245870;23;20427;-84
2021/09/09 06:45:37;;;;;;;22.43;17.50;;;16.80;85.40;;;;;;6245051;23;20404;-83
2021/09/09 06:48:06;;;;;;;19.93;14.80;;;16.90;86.60;;;;;;6244907;23;20402;-80
2021/09/09 06:50:33;;;;;;;18.53;14.97;;;17.10;84.30;;;;;;6245435;22;20384;-80
2021/09/09 06:53:00;;;;;;;22.33;16.07;;;17.20;83.50;;;;;;6244443;23;20402;-81
2021/09/09 06:55:27;;;;;;;18.93;14.23;;;17.30;83.60;;;;;;6245711;23;20435;-79
2021/09/09 06:57:53;;;;;;;18.13;13.60;;;17.40;83.50;;;;;;6246085;23;20406;-79
2021/09/09 07:00:20;;;;;;;19.13;14.10;;;17.50;82.80;;;;;;6246146;23;20403;-77
2021/09/09 07:02:47;;;;;;;18.63;14.13;;;17.60;80.90;;;;;;6245770;23;20726;-84
2021/09/09 07:05:15;;;;;;;20.57;14.00;;;17.70;79.00;;;;;;6245936;23;20525;-84
2021/09/09 07:07:42;;;;;;;14.83;11.70;;;17.80;76.20;;;;;;6244348;22;20486;-83
2021/09/09 07:10:18;;;;;;;17.67;13.63;;;18.00;77.40;;;;;;6255634;22;20415;-85
2021/09/09 07:12:45;;;;;;;17.93;13.50;;;18.10;75.60;;;;;;6246020;23;20402;-83
2021/09/09 07:15:12;;;;;;;18.13;13.20;;;18.10;75.80;;;;;;6245990;23;20797;-83
2021/09/09 07:17:39;;;;;;;26.13;12.90;;;18.20;74.30;;;;;;6255956;23;20432;-83
2021/09/09 07:20:09;;;;;;;17.00;12.13;;;18.30;72.30;;;;;;6245518;22;20431;-83
2021/09/09 07:22:37;;;;;;;17.87;11.90;;;18.50;72.00;;;;;;6253823;23;20921;-82
2021/09/09 07:25:05;;;;;;;19.13;13.47;;;18.60;69.20;;;;;;6244852;23;20464;-82
2021/09/09 07:27:32;;;;;;;17.03;12.23;;;18.70;66.70;;;;;;6245421;23;20713;-83
2021/09/09 07:30:02;;;;;;;17.93;12.40;;;18.70;66.90;;;;;;6256127;23;20777;-85
2021/09/09 07:32:29;;;;;;;16.40;12.70;;;19.00;67.30;;;;;;6255960;23;20430;-84
2021/09/09 07:34:55;;;;;;;18.75;13.82;;;19.10;63.90;;;;;;6254886;23;20422;-83
2021/09/09 07:37:22;;;;;;;23.60;14.40;;;19.10;63.20;;;;;;6245869;23;20159;-83
2021/09/09 07:39:53;;;;;;;18.67;13.53;;;19.30;62.40;;;;;;6244587;23;20404;-84
2021/09/09 07:42:24;;;;;;;24.93;13.30;;;19.40;62.60;;;;;;6243092;23;20484;-84
2021/09/09 07:44:51;;;;;;;20.00;13.97;;;19.50;61.40;;;;;;6245828;23;20410;-84
2021/09/09 07:47:20;;;;;;;26.10;13.10;;;19.60;60.40;;;;;;6245596;23;20730;-84
2021/09/09 07:50:01;;;;;;;21.43;13.27;;;19.70;59.50;;;;;;6246063;23;20402;-84
2021/09/09 07:52:31;;;;;;;18.53;13.07;;;19.90;59.50;;;;;;6245245;23;20480;-84
2021/09/09 07:55:07;;;;;;;21.40;12.97;;;20.00;56.20;;;;;;6245182;23;20407;-84
2021/09/09 07:57:39;;;;;;;18.40;13.03;;;20.20;55.40;;;;;;6193258;23;20418;-84
2021/09/09 08:00:27;;;;;;;20.80;13.87;;;20.60;53.80;;;;;;6245849;23;20405;-85
2021/09/09 08:02:54;;;;;;;18.33;13.83;;;21.10;51.90;;;;;;6247681;23;20399;-84
2021/09/09 08:05:23;;;;;;;67.37;23.83;;;21.30;48.50;;;;;;6247592;23;20770;-84
2021/09/09 08:07:50;;;;;;;18.53;12.77;;;21.70;45.90;;;;;;6246230;23;20430;-84
2021/09/09 08:10:23;;;;;;;88.13;23.83;;;21.80;44.60;;;;;;6247012;23;20441;-81
2021/09/09 08:12:50;;;;;;;25.83;13.70;;;22.10;43.30;;;;;;6247595;23;20803;-81
2021/09/09 08:15:19;;;;;;;18.53;11.50;;;22.10;40.50;;;;;;6247364;23;20428;-81
2021/09/09 08:17:47;;;;;;;17.10;12.00;;;22.20;39.40;;;;;;6247356;22;20432;-81
2021/09/09 08:20:16;;;;;;;23.53;12.40;;;22.30;38.70;;;;;;6257717;23;20425;-81
2021/09/09 08:22:43;;;;;;;14.97;10.33;;;22.70;37.80;;;;;;6255988;23;20464;-80
2021/09/09 08:25:11;;;;;;;17.23;12.13;;;23.00;38.10;;;;;;6247377;23;20462;-81
2021/09/09 08:27:40;;;;;;;13.63;10.70;;;23.30;36.80;;;;;;6246999;23;20407;-81
2021/09/09 08:30:08;;;;;;;14.50;11.60;;;23.50;35.90;;;;;;6257572;23;20491;-81
2021/09/09 08:32:36;;;;;;;18.23;12.60;;;23.50;33.20;;;;;;6257425;23;20406;-80
2021/09/09 08:35:03;;;;;;;17.50;11.50;;;23.70;34.40;;;;;;6257136;23;20791;-81
2021/09/09 08:37:30;;;;;;;15.47;11.63;;;23.80;32.00;;;;;;6246803;23;20852;-80
2021/09/09 08:39:58;;;;;;;20.83;12.83;;;23.90;30.50;;;;;;6246212;23;20933;-80
2021/09/09 08:42:25;;;;;;;17.83;11.73;;;24.00;30.70;;;;;;6247156;23;20435;-80
2021/09/09 08:44:57;;;;;;;16.20;11.80;;;24.20;30.00;;;;;;6247155;23;20456;-82
2021/09/09 08:47:25;;;;;;;16.53;11.73;;;24.20;32.40;;;;;;6247206;23;20430;-80
2021/09/09 08:50:00;;;;;;;14.70;11.70;;;24.20;33.30;;;;;;6246973;23;20406;-82
2021/09/09 08:52:58;;;;;;;;;;;;;;;;;;;;;
2021/09/09 08:55:25;;;;;;;18.63;11.73;;;24.40;31.10;;;;;;6229604;22;20444;-80
2021/09/09 08:58:00;;;;;;;20.00;11.50;;;24.90;30.60;;;;;;6247100;23;20400;-80
2021/09/09 09:00:29;;;;;;;16.97;13.57;;;25.40;29.10;;;;;;6247017;23;20403;-78
2021/09/09 09:02:57;;;;;;;20.13;10.90;;;25.70;27.20;;;;;;6247008;23;20403;-79
2021/09/09 09:05:25;;;;;;;16.10;12.20;;;26.20;25.70;;;;;;6247150;23;20467;-78
2021/09/09 09:08:00;;;;;;;15.70;11.60;;;26.60;24.00;;;;;;6246711;23;20494;-81
2021/09/09 09:10:28;;;;;;;20.27;11.80;;;26.80;22.30;;;;;;6247257;23;20460;-80
2021/09/09 09:12:55;;;;;;;15.07;11.27;;;27.20;20.10;;;;;;6246830;23;20373;-78
2021/09/09 09:15:24;;;;;;;13.50;10.73;;;27.70;18.40;;;;;;6247068;23;20406;-78
2021/09/09 09:18:04;;;;;;;16.10;11.43;;;28.00;17.50;;;;;;6246510;22;20485;-78
2021/09/09 09:20:41;;;;;;;16.57;11.80;;;27.60;15.70;;;;;;6246976;22;20478;-79
2021/09/09 09:23:20;;;;;;;19.17;11.77;;;27.80;17.30;;;;;;6245308;23;20405;-81
2021/09/09 09:25:49;;;;;;;18.67;12.68;;;27.90;16.10;;;;;;6255940;23;20496;-79
2021/09/09 09:28:16;;;;;;;19.70;12.30;;;27.90;14.60;;;;;;6246447;23;20163;-87
2021/09/09 09:31:04;;;;;;;14.80;11.70;;;27.80;15.10;;;;;;6257036;23;20786;-79
2021/09/09 09:33:34;;;;;;;18.73;10.70;;;27.80;17.30;;;;;;6246509;22;20474;-81
2021/09/09 09:36:22;;;;;;;14.27;10.80;;;28.10;15.60;;;;;;6256585;23;20417;-81
2021/09/09 09:38:50;;;;;;;16.57;12.00;;;28.60;13.70;;;;;;6244981;22;20864;-79
2021/09/09 09:41:20;;;;;;;18.00;12.20;;;28.40;12.20;;;;;;6256509;23;20434;-79
2021/09/09 09:43:52;;;;;;;13.90;10.83;;;28.40;13.60;;;;;;6246830;23;20453;-86
2021/09/09 09:46:33;;;;;;;19.03;11.83;;;28.80;12.90;;;;;;6246125;23;20492;-81
2021/09/09 09:49:23;;;;;;;18.67;10.93;;;28.80;11.70;;;;;;6246806;23;20381;-79
2021/09/09 09:51:52;;;;;;;17.10;10.73;;;29.10;11.10;;;;;;6246586;23;20377;-82
2021/09/09 09:54:20;;;;;;;16.27;10.93;;;29.20;10.40;;;;;;6245136;23;20395;-80
2021/09/09 09:56:48;;;;;;;12.23;9.27;;;29.20;9.80;;;;;;6246579;23;20370;-92
2021/09/09 09:59:16;;;;;;;16.70;9.13;;;29.90;15.40;;;;;;6246742;23;20452;-81
2021/09/09 10:01:43;;;;;;;14.50;10.00;;;30.40;12.20;;;;;;6246177;23;20395;-80
2021/09/09 10:04:12;;;;;;;17.30;8.17;;;30.10;11.00;;;;;;6246158;23;20435;-81
2021/09/09 10:06:42;;;;;;;16.97;8.57;;;30.00;10.90;;;;;;6246506;23;20431;-77
2021/09/09 10:09:09;;;;;;;14.10;10.52;;;30.40;9.50;;;;;;6243892;23;20412;-83
2021/09/09 10:11:36;;;;;;;13.67;8.80;;;30.90;7.80;;;;;;6256321;23;20199;-85
2021/09/09 10:14:05;;;;;;;15.13;9.67;;;30.90;7.10;;;;;;6246183;23;20456;-80
2021/09/09 10:16:36;;;;;;;13.23;9.47;;;30.90;7.50;;;;;;6246327;22;20791;-81
2021/09/09 10:19:03;;;;;;;16.03;9.37;;;30.80;5.40;;;;;;6246479;23;20392;-78
2021/09/09 10:21:45;;;;;;;13.20;9.50;;;31.20;7.20;;;;;;6246288;23;20422;-78
2021/09/09 10:24:16;;;;;;;11.60;8.53;;;30.80;6.40;;;;;;6244631;23;20399;-81
2021/09/09 10:26:43;;;;;;;12.43;8.93;;;31.20;9.30;;;;;;6246379;22;20434;-81
2021/09/09 10:29:43;;;;;;;12.73;9.10;;;31.40;5.70;;;;;;6246440;23;20401;-76
2021/09/09 10:32:30;;;;;;;15.93;9.37;;;31.50;6.50;;;;;;6246141;23;20381;-77
2021/09/09 10:35:31;;;;;;;12.70;9.43;;;32.10;2.60;;;;;;6245552;23;20415;-82
2021/09/09 10:38:16;;;;;;;15.40;8.97;;;31.60;2.60;;;;;;6244832;22;20458;-78
2021/09/09 10:40:46;;;;;;;14.33;9.17;;;31.80;2.90;;;;;;6245606;23;20539;-80
2021/09/09 10:43:14;;;;;;;12.27;9.10;;;31.60;3.50;;;;;;6245875;23;20400;-78
2021/09/09 10:45:42;;;;;;;14.00;10.00;;;31.60;2.20;;;;;;6245771;23;20431;-80
2021/09/09 10:48:10;;;;;;;17.53;9.60;;;31.00;3.50;;;;;;6246136;23;20405;-79
2021/09/09 10:50:38;;;;;;;10.87;8.90;;;31.40;2.10;;;;;;6246117;23;20431;-81
2021/09/09 10:53:08;;;;;;;12.87;8.87;;;32.10;3.20;;;;;;6244501;23;20426;-80
2021/09/09 10:55:37;;;;;;;18.00;9.17;;;31.60;1.40;;;;;;6246182;23;20485;-78
2021/09/09 10:58:29;;;;;;;11.53;7.40;;;31.50;2.30;;;;;;6246068;23;20405;-79
2021/09/09 11:00:58;;;;;;;12.30;8.30;;;31.90;4.00;;;;;;6245746;22;20378;-81
2021/09/09 11:03:42;;;;;;;13.07;9.73;;;32.10;2.60;;;;;;6245965;23;20399;-79
2021/09/09 11:06:11;;;;;;;12.53;8.90;;;31.60;3.90;;;;;;6245980;23;20406;-80
2021/09/09 11:08:40;;;;;;;13.37;10.37;;;30.90;5.90;;;;;;6244569;23;20399;-80
2021/09/09 11:11:09;;;;;;;15.50;9.20;;;31.10;7.20;;;;;;6255524;23;21026;-81
2021/09/09 11:13:48;;;;;;;15.50;9.17;;;31.70;3.90;;;;;;6245984;23;20406;-83
2021/09/09 11:16:19;;;;;;;16.30;9.90;;;31.70;3.90;;;;;;6256594;22;20853;-82
2021/09/09 11:18:47;;;;;;;16.20;8.70;;;31.70;4.50;;;;;;6248059;23;20453;-82
2021/09/09 11:21:19;;;;;;;13.90;9.50;;;32.20;3.00;;;;;;6257803;23;20407;-81
2021/09/09 11:23:53;;;;;;;9.17;7.33;;;32.40;3.00;;;;;;6246562;23;20403;-81
2021/09/09 11:26:21;;;;;;;12.90;9.38;;;32.60;4.40;;;;;;6256855;23;20474;-81
2021/09/09 11:29:22;;;;;;;;;;;;;;;;;;;;;
2021/09/09 11:31:57;;;;;;;11.70;9.13;;;34.10;1.00;;;;;;6066521;23;20406;-84
2021/09/09 11:34:26;;;;;;;11.53;8.53;;;33.50;1.00;;;;;;6220980;22;20377;-83
2021/09/09 11:36:53;;;;;;;12.80;9.50;;;33.50;1.60;;;;;;6247415;23;20406;-80
2021/09/09 11:48:11;;;;;;;16.47;8.57;;;32.90;2.30;;;;;;6225851;22;20765;-81
2021/09/09 11:51:17;;;;;;;13.13;8.17;;;31.90;4.00;;;;;;6255373;22;20390;-82
2021/09/09 11:53:52;;;;;;;11.17;8.47;;;31.10;6.80;;;;;;6183883;22;20430;-81
2021/09/09 11:56:23;;;;;;;11.97;8.00;;;30.30;8.40;;;;;;6245550;22;20761;-83
2021/09/09 11:58:53;;;;;;;14.47;7.80;;;29.80;10.80;;;;;;6245752;22;20395;-82
2021/09/09 12:01:22;;;;;;;11.53;7.17;;;29.60;12.20;;;;;;6245123;22;20406;-81
2021/09/09 12:04:26;;;;;;;13.13;7.20;;;29.90;11.00;;;;;;6245199;22;20417;-83
2021/09/09 12:07:24;;;;;;;9.73;7.37;;;29.80;10.80;;;;;;6245320;23;20480;-82
2021/09/09 12:10:17;;;;;;;;;;;;;;;;;;;;;
2021/09/09 12:16:35;;;;;;;9.40;6.40;;;29.30;13.70;;;;;;6099701;22;20423;-82
2021/09/09 12:19:06;;;;;;;10.80;6.20;;;29.30;13.10;;;;;;6234332;22;20938;-81
2021/09/09 12:21:33;;;;;;;12.00;6.60;;;29.70;13.30;;;;;;6255320;23;20393;-80
2021/09/09 12:24:05;;;;;;;10.00;6.83;;;30.10;11.80;;;;;;6253901;23;20420;-80
2021/09/09 12:26:35;;;;;;;8.87;6.07;;;30.10;10.60;;;;;;6245230;22;20934;-80
2021/09/09 12:29:13;;;;;;;7.93;5.80;;;30.80;11.30;;;;;;6254800;22;20883;-81
2021/09/09 12:31:40;;;;;;;12.20;5.10;;;31.10;6.80;;;;;;6245155;23;20458;-82
2021/09/09 12:34:12;;;;;;;7.77;5.37;;;31.60;7.20;;;;;;6245356;23;20478;-81
2021/09/09 12:36:40;;;;;;;10.50;3.90;;;31.70;4.00;;;;;;6245603;23;20784;-80
2021/09/09 12:39:20;;;;;;;7.17;3.50;;;32.20;3.30;;;;;;6245535;23;20403;-81
2021/09/09 12:58:11;;;;;;;10.30;3.70;;;32.30;1.00;;;;;;5951297;24;20167;-81
2021/09/09 13:06:59;;;;;;;7.30;2.90;;;34.60;1.00;;;;;;5845827;24;21042;-81
2021/09/09 13:13:15;;;;;;;7.30;3.10;;;33.20;1.00;;;;;;5999961;23;20910;-82
2021/09/09 13:16:03;;;;;;;5.93;3.23;;;33.60;1.00;;;;;;5992926;23;20984;-82
2021/09/09 13:18:31;;;;;;;6.53;3.53;;;35.20;1.00;;;;;;6133221;22;20382;-80
2021/09/09 13:20:59;;;;;;;11.23;3.50;;;35.20;1.00;;;;;;6256645;23;20510;-81
2021/09/09 13:30:54;;;;;;;6.90;3.53;;;34.70;1.00;;;;;;5975116;23;20426;-83
2021/09/09 13:36:54;;;;;;;6.93;3.37;;;35.50;1.00;;;;;;5882250;24;20448;-83
2021/09/09 13:46:48;;;;;;;6.30;3.50;;;31.50;1.00;;;;;;6116639;23;20444;-82